createdAt,value
2023-03-16T00:00:57.896Z,0.57
2023-03-16T00:03:25.824Z,1.15
2023-03-16T00:05:54.988Z,1.04
2023-03-16T00:08:22.820Z,0.81
2023-03-16T00:10:54.205Z,0.98
2023-03-16T00:13:25.862Z,1.01
2023-03-16T00:15:55.180Z,0.92
2023-03-16T00:18:27.124Z,0.70
2023-03-16T00:20:56.883Z,0.70
2023-03-16T00:23:27.306Z,0.88
2023-03-16T00:25:55.734Z,0.99
2023-03-16T00:28:26.848Z,0.98
2023-03-16T00:30:58.844Z,0.99
2023-03-16T00:33:27.428Z,0.83
2023-03-16T00:36:02.528Z,0.94
2023-03-16T00:38:32.241Z,0.90
2023-03-16T00:41:00.117Z,0.72
2023-03-16T00:43:29.511Z,0.75
2023-03-16T00:46:06.612Z,0.70
2023-03-16T00:48:35.632Z,0.51
2023-03-16T00:51:04.331Z,0.76
2023-03-16T00:53:33.470Z,0.92
2023-03-16T00:56:04.329Z,0.75
2023-03-16T00:58:37.476Z,0.71
2023-03-16T01:01:06.928Z,0.74
2023-03-16T01:03:35.199Z,0.81
2023-03-16T01:06:06.116Z,0.39
2023-03-16T01:08:34.179Z,0.05
2023-03-16T01:11:05.026Z,0.69
2023-03-16T01:13:34.937Z,0.67
2023-03-16T01:16:04.009Z,0.22
2023-03-16T01:18:34.400Z,0.44
2023-03-16T01:21:03.568Z,0.46
2023-03-16T01:23:34.237Z,0.54
2023-03-16T01:26:02.325Z,0.50
2023-03-16T01:28:31.828Z,0.50
2023-03-16T01:31:03.148Z,0.62
2023-03-16T01:33:31.887Z,0.48
2023-03-16T01:36:04.186Z,0.51
2023-03-16T01:38:41.201Z,0.52
2023-03-16T01:41:09.832Z,0.58
2023-03-16T01:43:39.765Z,0.46
2023-03-16T01:46:22.547Z,0.39
2023-03-16T01:49:00.722Z,0.24
2023-03-16T01:51:34.351Z,0.12
2023-03-16T01:54:07.741Z,0.05
2023-03-16T01:56:41.757Z,0.28
2023-03-16T01:59:14.084Z,-0.02
2023-03-16T02:01:42.562Z,0.44
2023-03-16T02:04:28.441Z,0.41
2023-03-16T02:07:01.050Z,0.37
2023-03-16T02:09:32.071Z,0.10
2023-03-16T02:12:01.303Z,0.11
2023-03-16T02:14:30.745Z,-0.13
2023-03-16T02:16:58.911Z,-0.33
2023-03-16T02:19:39.612Z,0.15
2023-03-16T02:22:09.858Z,-0.15
2023-03-16T02:24:39.300Z,0.19
2023-03-16T02:27:10.409Z,0.12
2023-03-16T02:30:01.749Z,0.06
2023-03-16T02:32:36.350Z,0.15
2023-03-16T02:35:05.076Z,0.17
2023-03-16T02:37:34.394Z,0.16
2023-03-16T02:40:05.635Z,0.10
2023-03-16T02:42:34.541Z,0.20
2023-03-16T02:45:04.511Z,0.28
2023-03-16T02:47:39.952Z,-0.26
2023-03-16T02:50:09.848Z,-0.53
2023-03-16T02:52:39.221Z,0.36
2023-03-16T02:55:08.529Z,0.12
2023-03-16T02:57:36.473Z,0.08
2023-03-16T03:00:17.365Z,-0.12
2023-03-16T03:02:47.323Z,-0.07
2023-03-16T03:05:15.324Z,0.20
2023-03-16T03:07:43.239Z,0.27
2023-03-16T03:10:12.192Z,0.17
2023-03-16T03:12:40.135Z,0.28
2023-03-16T03:15:11.964Z,0.25
2023-03-16T03:17:52.343Z,0.22
2023-03-16T03:20:21.602Z,0.10
2023-03-16T03:22:52.891Z,-0.59
2023-03-16T03:25:22.043Z,-0.20
2023-03-16T03:27:51.656Z,0.04
2023-03-16T03:30:24.644Z,0.01
2023-03-16T03:32:53.382Z,-0.34
2023-03-16T03:35:23.339Z,-0.42
2023-03-16T03:37:51.663Z,0.10
2023-03-16T03:40:21.572Z,0.20
2023-03-16T03:42:56.164Z,0.03
2023-03-16T03:45:26.744Z,0.03
2023-03-16T03:47:56.170Z,-0.56
2023-03-16T03:50:24.588Z,0.12
2023-03-16T03:53:18.836Z,0.20
2023-03-16T03:56:07.759Z,0.05
2023-03-16T03:58:38.825Z,-0.08
2023-03-16T04:01:08.308Z,-0.05
2023-03-16T04:03:36.762Z,-0.08
2023-03-16T04:06:07.138Z,-0.74
2023-03-16T04:08:35.753Z,-0.32
2023-03-16T04:11:06.605Z,-0.19
2023-03-16T04:13:35.166Z,-0.11
2023-03-16T04:16:03.795Z,-0.63
2023-03-16T04:18:40.459Z,-0.49
2023-03-16T04:21:18.822Z,-0.87
2023-03-16T04:23:49.108Z,-0.67
2023-03-16T04:26:17.878Z,-0.35
2023-03-16T04:28:48.417Z,-0.55
2023-03-16T04:31:19.378Z,-0.15
2023-03-16T04:33:49.954Z,-0.32
2023-03-16T04:36:18.340Z,-0.01
2023-03-16T04:38:46.621Z,-0.10
2023-03-16T04:41:14.652Z,-0.04
2023-03-16T04:43:54.507Z,0.03
2023-03-16T04:46:26.653Z,-0.02
2023-03-16T04:48:58.789Z,0.05
2023-03-16T04:51:29.403Z,-0.04
2023-03-16T04:54:06.697Z,-1.03
2023-03-16T04:56:37.002Z,0.18
2023-03-16T04:59:10.734Z,0.04
2023-03-16T05:02:02.697Z,0.11
2023-03-16T05:04:32.266Z,0.18
2023-03-16T05:07:01.148Z,0.10
2023-03-16T05:09:34.539Z,-0.04
2023-03-16T05:12:02.561Z,0.20
2023-03-16T05:14:32.260Z,0.17
2023-03-16T05:17:18.520Z,-0.02
2023-03-16T05:19:48.958Z,0.00
2023-03-16T05:22:18.347Z,-0.01
2023-03-16T05:25:13.790Z,-0.36
2023-03-16T05:27:42.787Z,0.05
2023-03-16T05:30:16.199Z,-0.07
2023-03-16T05:32:45.384Z,0.29
2023-03-16T05:35:15.776Z,0.24
2023-03-16T05:37:44.575Z,-0.33
2023-03-16T05:40:18.308Z,0.23
2023-03-16T05:42:57.004Z,0.18
2023-03-16T05:45:26.385Z,0.14
2023-03-16T05:48:06.373Z,0.28
2023-03-16T05:50:39.617Z,0.41
2023-03-16T05:53:08.832Z,0.51
2023-03-16T05:55:38.627Z,0.47
2023-03-16T05:58:09.524Z,0.41
2023-03-16T06:00:39.427Z,0.58
2023-03-16T06:03:21.490Z,0.69
2023-03-16T06:05:51.121Z,0.77
2023-03-16T06:08:27.333Z,0.83
2023-03-16T06:11:00.923Z,0.90
2023-03-16T06:13:28.773Z,-0.28
2023-03-16T06:15:56.788Z,1.24
2023-03-16T06:18:25.112Z,1.59
2023-03-16T06:20:54.435Z,1.67
2023-03-16T06:23:23.065Z,1.71
2023-03-16T06:25:54.599Z,1.69
2023-03-16T06:28:25.118Z,1.77
2023-03-16T06:30:55.071Z,1.95
2023-03-16T06:33:24.885Z,1.63
2023-03-16T06:35:54.467Z,2.22
2023-03-16T06:38:31.122Z,2.59
2023-03-16T06:41:02.775Z,2.49
2023-03-16T06:43:33.483Z,2.60
2023-03-16T06:46:01.564Z,2.90
2023-03-16T06:48:29.748Z,2.93
2023-03-16T06:50:59.899Z,3.09
2023-03-16T06:53:30.211Z,3.15
2023-03-16T06:55:58.865Z,3.13
2023-03-16T06:58:28.777Z,2.50
2023-03-16T07:00:56.879Z,3.09
2023-03-16T07:03:24.820Z,2.99
2023-03-16T07:05:59.441Z,3.26
2023-03-16T07:08:27.534Z,3.43
2023-03-16T07:10:55.569Z,3.53
2023-03-16T07:13:23.764Z,2.62
2023-03-16T07:15:52.960Z,3.65
2023-03-16T07:18:22.497Z,3.55
2023-03-16T07:20:50.770Z,3.52
2023-03-16T07:23:20.140Z,3.14
2023-03-16T07:25:48.006Z,3.96
2023-03-16T07:28:19.052Z,4.09
2023-03-16T07:31:02.439Z,4.22
2023-03-16T07:33:33.787Z,4.44
2023-03-16T07:36:05.976Z,4.34
2023-03-16T07:38:40.038Z,4.38
2023-03-16T07:41:09.034Z,4.73
2023-03-16T07:43:37.149Z,4.64
2023-03-16T07:46:05.536Z,4.87
2023-03-16T07:48:33.532Z,4.84
2023-03-16T07:51:03.460Z,5.28
2023-03-16T07:53:33.051Z,5.32
2023-03-16T07:56:16.858Z,4.87
2023-03-16T07:58:47.561Z,5.61
2023-03-16T08:01:15.846Z,5.62
2023-03-16T08:03:44.868Z,5.22
2023-03-16T08:06:13.116Z,5.66
2023-03-16T08:08:41.026Z,5.72
2023-03-16T08:11:11.740Z,5.79
2023-03-16T08:13:56.591Z,5.82
2023-03-16T08:16:28.018Z,5.92
2023-03-16T08:18:58.129Z,5.94
2023-03-16T08:21:26.174Z,6.07
2023-03-16T08:23:55.094Z,6.02
2023-03-16T08:26:24.827Z,6.30
2023-03-16T08:29:02.496Z,6.34
2023-03-16T08:31:35.072Z,6.17
2023-03-16T08:34:16.123Z,6.15
2023-03-16T08:36:45.614Z,6.23
2023-03-16T08:39:16.500Z,6.41
2023-03-16T08:41:48.356Z,6.50
2023-03-16T08:44:30.328Z,6.83
2023-03-16T08:46:59.530Z,6.72
2023-03-16T08:49:27.371Z,6.64
2023-03-16T08:52:05.278Z,6.58
2023-03-16T08:54:33.669Z,6.86
2023-03-16T08:57:01.612Z,6.89
2023-03-16T08:59:31.306Z,6.80
2023-03-16T09:01:59.238Z,6.85
2023-03-16T09:04:28.285Z,6.80
2023-03-16T09:07:07.831Z,6.88
2023-03-16T09:09:37.038Z,7.16
2023-03-16T09:12:05.967Z,6.74
2023-03-16T09:14:37.151Z,7.10
2023-03-16T09:17:05.198Z,7.30
2023-03-16T09:19:50.092Z,7.28
2023-03-16T09:22:19.539Z,7.27
2023-03-16T09:24:48.493Z,7.43
2023-03-16T09:27:16.879Z,7.79
2023-03-16T09:29:46.638Z,7.77
2023-03-16T09:32:15.402Z,7.89
2023-03-16T09:34:44.717Z,8.00
2023-03-16T09:37:12.781Z,7.85
2023-03-16T09:39:40.665Z,7.92
2023-03-16T09:42:17.553Z,8.00
2023-03-16T09:44:57.354Z,7.96
2023-03-16T09:47:29.693Z,8.23
2023-03-16T09:49:59.954Z,8.31
2023-03-16T09:52:34.419Z,8.36
2023-03-16T09:55:44.187Z,8.44
2023-03-16T09:58:35.339Z,8.42
2023-03-16T10:01:51.368Z,8.36
2023-03-16T10:04:46.289Z,8.69
2023-03-16T10:13:44.839Z,8.80
2023-03-16T10:16:18.449Z,8.91
2023-03-16T10:18:50.950Z,8.95
2023-03-16T10:21:23.402Z,9.02
2023-03-16T10:23:56.040Z,8.99
2023-03-16T10:26:29.712Z,9.26
2023-03-16T10:28:57.678Z,9.03
2023-03-16T10:31:25.470Z,9.13
2023-03-16T10:34:02.618Z,9.30
2023-03-16T10:36:33.625Z,9.22
2023-03-16T10:39:05.007Z,9.60
2023-03-16T10:41:35.318Z,9.78
2023-03-16T10:44:07.505Z,9.67
2023-03-16T10:46:41.793Z,9.98
2023-03-16T10:49:25.309Z,9.79
2023-03-16T10:51:55.362Z,9.63
2023-03-16T10:54:30.523Z,9.70
2023-03-16T10:56:59.170Z,9.71
2023-03-16T10:59:34.397Z,9.99
2023-03-16T11:02:05.325Z,10.02
2023-03-16T11:04:35.634Z,10.00
2023-03-16T11:07:03.317Z,9.65
2023-03-16T11:09:34.529Z,9.71
2023-03-16T11:12:15.361Z,9.87
2023-03-16T11:14:45.345Z,9.98
2023-03-16T11:17:17.972Z,9.95
2023-03-16T11:19:53.096Z,10.01
2023-03-16T11:22:24.239Z,9.89
2023-03-16T11:24:57.554Z,9.84
2023-03-16T11:27:27.859Z,9.94
2023-03-16T11:29:59.897Z,9.91
2023-03-16T11:32:32.208Z,10.04
2023-03-16T11:35:04.365Z,8.50
2023-03-16T11:37:49.794Z,9.88
2023-03-16T11:40:30.409Z,9.83
2023-03-16T11:43:07.057Z,10.04
2023-03-16T11:45:43.178Z,10.10
2023-03-16T11:48:30.334Z,10.44
2023-03-16T11:51:06.353Z,9.81
2023-03-16T11:53:47.889Z,10.49
2023-03-16T11:56:25.098Z,10.62
2023-03-16T11:59:15.807Z,10.42
2023-03-16T12:02:00.981Z,9.75
2023-03-16T12:04:49.896Z,10.60
2023-03-16T12:07:50.908Z,10.26
2023-03-16T12:10:26.572Z,10.67
2023-03-16T12:13:10.441Z,10.78
2023-03-16T12:15:44.915Z,10.91
2023-03-16T12:18:18.190Z,11.14
2023-03-16T12:20:52.123Z,11.10
2023-03-16T12:23:27.215Z,11.15
2023-03-16T12:25:57.836Z,11.03
2023-03-16T12:28:27.691Z,11.01
2023-03-16T12:31:15.137Z,11.17
2023-03-16T12:34:07.768Z,10.41
2023-03-16T12:36:57.662Z,10.61
2023-03-16T12:39:40.903Z,10.67
2023-03-16T12:42:23.394Z,10.52
2023-03-16T12:44:57.559Z,10.65
2023-03-16T12:47:33.680Z,10.47
2023-03-16T12:50:07.311Z,10.77
2023-03-16T12:52:42.960Z,10.67
2023-03-16T12:55:17.635Z,10.60
2023-03-16T12:57:46.908Z,10.65
2023-03-16T13:00:16.511Z,10.82
2023-03-16T13:02:51.063Z,10.68
2023-03-16T13:05:29.000Z,10.82
2023-03-16T13:08:08.908Z,11.09
2023-03-16T13:10:38.721Z,10.95
2023-03-16T13:13:11.610Z,11.02
2023-03-16T13:15:40.227Z,11.15
2023-03-16T13:18:23.798Z,10.46
2023-03-16T13:20:54.941Z,11.34
2023-03-16T13:23:25.486Z,11.31
2023-03-16T13:26:05.643Z,11.27
2023-03-16T13:28:36.639Z,10.94
2023-03-16T13:31:06.193Z,11.33
2023-03-16T13:33:36.937Z,11.36
2023-03-16T13:36:07.271Z,10.38
2023-03-16T13:38:35.059Z,11.17
2023-03-16T13:41:10.308Z,11.31
2023-03-16T13:43:43.774Z,11.20
2023-03-16T13:46:15.887Z,11.25
2023-03-16T13:48:44.049Z,10.99
2023-03-16T13:51:17.636Z,11.06
2023-03-16T13:53:45.996Z,10.96
2023-03-16T13:56:17.190Z,10.91
2023-03-16T13:58:48.417Z,10.87
2023-03-16T14:01:26.051Z,10.82
2023-03-16T14:03:56.468Z,10.96
2023-03-16T14:06:26.730Z,11.20
2023-03-16T14:08:57.696Z,10.91
2023-03-16T14:11:28.899Z,11.02
2023-03-16T14:13:58.268Z,11.04
2023-03-16T14:16:29.690Z,10.99
2023-03-16T14:19:05.099Z,10.95
2023-03-16T14:21:35.293Z,10.57
2023-03-16T14:24:05.696Z,10.85
2023-03-16T14:26:43.199Z,10.76
2023-03-16T14:29:21.290Z,10.89
2023-03-16T14:31:49.683Z,10.91
2023-03-16T14:34:23.700Z,10.76
2023-03-16T14:36:51.599Z,10.94
2023-03-16T14:39:22.484Z,10.84
2023-03-16T14:41:53.509Z,10.84
2023-03-16T14:44:24.121Z,10.72
2023-03-16T14:46:56.407Z,10.66
2023-03-16T14:49:28.310Z,10.47
2023-03-16T14:52:00.452Z,10.66
2023-03-16T14:54:29.585Z,10.52
2023-03-16T14:57:02.121Z,10.74
2023-03-16T14:59:30.541Z,10.74
2023-03-16T15:02:00.321Z,10.72
2023-03-16T15:04:32.169Z,10.91
2023-03-16T15:07:00.195Z,10.63
2023-03-16T15:09:38.002Z,10.79
2023-03-16T15:12:15.169Z,10.81
2023-03-16T15:15:00.573Z,10.65
2023-03-16T15:17:28.420Z,10.35
2023-03-16T15:19:56.370Z,10.50
2023-03-16T15:22:29.003Z,10.44
2023-03-16T15:24:58.144Z,10.60
2023-03-16T15:27:34.690Z,10.64
2023-03-16T15:30:02.952Z,10.25
2023-03-16T15:32:30.855Z,10.58
2023-03-16T15:34:58.694Z,10.15
2023-03-16T15:37:27.826Z,10.54
2023-03-16T15:39:55.809Z,10.40
2023-03-16T15:42:25.867Z,10.39
2023-03-16T15:44:55.297Z,10.43
2023-03-16T15:47:23.236Z,10.38
2023-03-16T15:49:51.279Z,10.35
2023-03-16T15:52:32.702Z,10.25
2023-03-16T15:55:04.507Z,10.43
2023-03-16T15:57:32.669Z,10.43
2023-03-16T16:00:02.442Z,10.15
2023-03-16T16:02:33.553Z,10.05
2023-03-16T16:05:01.988Z,10.34
2023-03-16T16:07:30.019Z,10.24
2023-03-16T16:09:57.902Z,9.91
2023-03-16T16:12:27.271Z,10.29
2023-03-16T16:14:56.693Z,10.22
2023-03-16T16:17:43.819Z,9.89
2023-03-16T16:20:20.428Z,9.63
2023-03-16T16:22:48.534Z,10.10
2023-03-16T16:25:17.441Z,10.13
2023-03-16T16:27:45.796Z,10.08
2023-03-16T16:30:22.134Z,9.77
2023-03-16T16:32:52.125Z,9.85
2023-03-16T16:35:22.883Z,9.98
2023-03-16T16:37:51.759Z,9.76
2023-03-16T16:40:21.797Z,9.71
2023-03-16T16:42:51.748Z,9.63
2023-03-16T16:45:22.260Z,8.76
2023-03-16T16:47:53.201Z,9.64
2023-03-16T16:50:23.853Z,9.54
2023-03-16T16:52:52.519Z,9.76
2023-03-16T16:55:21.317Z,9.76
2023-03-16T16:57:50.399Z,9.63
2023-03-16T17:00:21.033Z,9.55
2023-03-16T17:02:53.511Z,9.71
2023-03-16T17:05:23.010Z,9.38
2023-03-16T17:07:51.973Z,9.35
2023-03-16T17:10:22.368Z,9.50
2023-03-16T17:12:51.639Z,9.43
2023-03-16T17:15:26.556Z,9.16
2023-03-16T17:18:01.927Z,9.44
2023-03-16T17:20:30.146Z,9.42
2023-03-16T17:23:00.225Z,9.41
2023-03-16T17:25:30.260Z,8.84
2023-03-16T17:27:58.865Z,9.09
2023-03-16T17:30:29.004Z,9.05
2023-03-16T17:33:03.780Z,9.09
2023-03-16T17:35:32.263Z,9.22
2023-03-16T17:38:00.264Z,9.05
2023-03-16T17:40:28.727Z,9.06
2023-03-16T17:42:56.982Z,8.48
2023-03-16T17:45:28.351Z,8.73
2023-03-16T17:47:57.934Z,8.98
2023-03-16T17:50:29.624Z,8.79
2023-03-16T17:52:57.843Z,8.90
2023-03-16T17:55:25.900Z,8.85
2023-03-16T17:57:55.318Z,8.74
2023-03-16T18:00:26.736Z,8.82
2023-03-16T18:02:56.577Z,8.81
2023-03-16T18:05:28.777Z,8.75
2023-03-16T18:08:01.018Z,8.64
2023-03-16T18:10:30.515Z,8.73
2023-03-16T18:13:01.879Z,8.81
2023-03-16T18:15:32.914Z,8.55
2023-03-16T18:18:02.137Z,8.49
2023-03-16T18:20:34.456Z,8.53
2023-03-16T18:23:04.785Z,8.44
2023-03-16T18:25:36.043Z,8.51
2023-03-16T18:28:03.952Z,8.26
2023-03-16T18:30:33.042Z,8.31
2023-03-16T18:33:03.185Z,8.28
2023-03-16T18:35:32.892Z,7.82
2023-03-16T18:38:01.084Z,8.34
2023-03-16T18:40:29.162Z,8.29
2023-03-16T18:42:57.275Z,8.29
2023-03-16T18:45:28.300Z,8.26
2023-03-16T18:47:57.953Z,8.29
2023-03-16T18:50:27.931Z,8.16
2023-03-16T18:52:58.256Z,8.27
2023-03-16T18:55:28.834Z,8.02
2023-03-16T18:57:57.354Z,8.18
2023-03-16T19:00:29.105Z,7.69
2023-03-16T19:02:59.406Z,8.36
2023-03-16T19:05:31.809Z,8.20
2023-03-16T19:08:01.175Z,8.14
2023-03-16T19:10:32.823Z,8.09
2023-03-16T19:13:00.665Z,8.10
2023-03-16T19:15:31.813Z,8.21
2023-03-16T19:18:00.233Z,8.23
2023-03-16T19:20:30.385Z,8.12
2023-03-16T19:23:05.188Z,8.23
2023-03-16T19:25:36.149Z,8.23
2023-03-16T19:28:05.749Z,8.29
2023-03-16T19:30:35.830Z,8.15
2023-03-16T19:33:03.877Z,8.18
2023-03-16T19:35:50.312Z,8.18
2023-03-16T19:38:20.800Z,8.11
2023-03-16T19:40:50.606Z,8.19
2023-03-16T19:43:20.006Z,8.02
2023-03-16T19:45:48.939Z,8.20
2023-03-16T19:48:20.443Z,7.87
2023-03-16T19:50:49.155Z,7.95
2023-03-16T19:53:19.513Z,8.02
2023-03-16T19:55:49.686Z,8.11
2023-03-16T19:58:24.645Z,8.12
2023-03-16T20:00:52.495Z,7.82
2023-03-16T20:03:20.688Z,8.13
2023-03-16T20:05:48.591Z,8.22
2023-03-16T20:08:25.410Z,8.15
2023-03-16T20:10:57.976Z,8.13
2023-03-16T20:13:26.841Z,8.04
2023-03-16T20:15:54.757Z,7.94
2023-03-16T20:18:22.722Z,8.01
2023-03-16T20:20:51.094Z,8.05
2023-03-16T20:23:22.969Z,8.09
2023-03-16T20:25:52.146Z,7.97
2023-03-16T20:28:24.306Z,8.04
2023-03-16T20:30:52.602Z,7.81
2023-03-16T20:33:23.815Z,7.80
2023-03-16T20:35:53.687Z,7.81
2023-03-16T20:38:22.806Z,7.98
2023-03-16T20:40:53.360Z,7.91
2023-03-16T20:43:27.915Z,7.84
2023-03-16T20:45:58.150Z,7.77
2023-03-16T20:48:26.326Z,7.82
2023-03-16T20:50:55.055Z,7.76
2023-03-16T20:53:23.863Z,7.72
2023-03-16T20:55:53.132Z,7.77
2023-03-16T20:58:24.450Z,7.71
2023-03-16T21:00:57.514Z,7.62
2023-03-16T21:03:28.401Z,7.61
2023-03-16T21:05:59.966Z,7.16
2023-03-16T21:08:28.294Z,7.70
2023-03-16T21:10:57.136Z,7.59
2023-03-16T21:13:31.076Z,7.71
2023-03-16T21:16:02.624Z,7.67
2023-03-16T21:18:31.309Z,7.62
2023-03-16T21:20:59.412Z,7.63
2023-03-16T21:23:27.368Z,7.69
2023-03-16T21:25:57.485Z,7.61
2023-03-16T21:28:27.742Z,7.76
2023-03-16T21:30:56.540Z,7.84
2023-03-16T21:33:31.042Z,7.81
2023-03-16T21:36:00.008Z,7.73
2023-03-16T21:38:28.917Z,7.80
2023-03-16T21:40:57.380Z,7.95
2023-03-16T21:43:26.111Z,7.89
2023-03-16T21:45:55.126Z,7.76
2023-03-16T21:48:25.183Z,7.81
2023-03-16T21:50:54.921Z,7.70
2023-03-16T21:53:25.694Z,7.74
2023-03-16T21:55:54.941Z,7.37
2023-03-16T21:58:23.928Z,7.76
2023-03-16T22:00:54.158Z,7.70
2023-03-16T22:03:29.609Z,7.77
2023-03-16T22:06:02.507Z,7.67
2023-03-16T22:08:32.699Z,7.79
2023-03-16T22:11:01.494Z,7.78
2023-03-16T22:13:29.577Z,7.74
2023-03-16T22:15:59.336Z,7.51
2023-03-16T22:18:30.364Z,7.67
2023-03-16T22:21:00.605Z,7.31
2023-03-16T22:23:31.877Z,7.57
2023-03-16T22:26:00.187Z,7.52
2023-03-16T22:28:29.054Z,7.64
2023-03-16T22:30:59.562Z,7.66
2023-03-16T22:33:30.891Z,7.58
2023-03-16T22:36:04.935Z,7.63
2023-03-16T22:38:34.254Z,7.72
2023-03-16T22:41:02.229Z,7.55
2023-03-16T22:43:32.933Z,6.45
2023-03-16T22:46:00.996Z,7.56
2023-03-16T22:48:30.803Z,7.63
2023-03-16T22:51:03.823Z,7.66
2023-03-16T22:53:38.742Z,7.75
2023-03-16T22:56:07.547Z,7.82
2023-03-16T22:58:37.689Z,7.80
2023-03-16T23:01:17.125Z,7.73
2023-03-16T23:03:45.907Z,7.62
2023-03-16T23:06:18.173Z,7.80
2023-03-16T23:08:47.948Z,7.62
2023-03-16T23:11:18.856Z,7.48
2023-03-16T23:13:47.038Z,7.37
2023-03-16T23:16:20.987Z,7.25
2023-03-16T23:18:49.969Z,7.53
2023-03-16T23:21:20.650Z,7.56
2023-03-16T23:24:02.746Z,7.51
2023-03-16T23:26:32.747Z,7.53
2023-03-16T23:29:00.804Z,7.49
2023-03-16T23:31:28.717Z,7.34
2023-03-16T23:33:56.613Z,7.33
2023-03-16T23:36:25.971Z,7.55
2023-03-16T23:38:55.371Z,7.55
2023-03-16T23:41:25.389Z,7.39
2023-03-16T23:43:54.102Z,7.10
2023-03-16T23:46:24.477Z,7.36
2023-03-16T23:48:54.427Z,7.39
2023-03-16T23:51:25.739Z,7.32
2023-03-16T23:53:55.009Z,7.09
2023-03-16T23:56:23.150Z,7.26
2023-03-16T23:58:51.757Z,7.41
